Time;durP1;ratioP1;P1;durP2;ratioP2;P2;SDS_P1;SDS_P2;PMS_P1;PMS_P2;Temp;Humidity;BMP_temperature;BMP_pressure;BME280_temperature;BME280_humidity;BME280_pressure;Samples;Min_cycle;Max_cycle;Signal;HPM_P1;HPM_P2
2022/07/09 00:02:15;;;;;;;;;;;;;;;18.54;61.26;100673.27;1436722;91;20415;-88
2022/07/09 00:04:41;;;;;;;;;;;;;;;18.52;61.53;100673.97;1435136;91;20419;-89
2022/07/09 00:07:08;;;;;;;;;;;;;;;18.49;61.70;100672.50;1434594;90;20449;-87
2022/07/09 00:09:35;;;;;;;;;;;;;;;18.48;61.71;100671.68;1436079;91;20301;-88
2022/07/09 00:12:02;;;;;;;;;;;;;;;18.46;62.14;100672.38;1437338;90;20331;-87
2022/07/09 00:14:29;;;;;;;;;;;;;;;18.40;62.50;100670.47;1432583;91;20900;-88
2022/07/09 00:16:56;;;;;;;;;;;;;;;18.45;62.22;100672.59;1431455;90;20308;-87
2022/07/09 00:19:23;;;;;;;;;;;;;;;18.40;62.71;100674.49;1439728;89;20982;-88
2022/07/09 00:21:50;;;;;;;;;;;;;;;18.35;62.87;100680.93;1433376;91;20293;-87
2022/07/09 00:24:17;;;;;;;;;;;;;;;18.32;63.04;100675.96;1432504;91;20398;-89
2022/07/09 00:26:44;;;;;;;;;;;;;;;18.32;62.89;100684.00;1428804;91;20404;-88
2022/07/09 00:29:11;;;;;;;;;;;;;;;18.29;63.14;100680.37;1425622;90;20418;-88
2022/07/09 00:31:37;;;;;;;;;;;;;;;18.29;63.23;100677.69;1401882;92;21808;-87
2022/07/09 00:34:04;;;;;;;;;;;;;;;18.28;63.25;100677.89;1420362;91;20284;-87
2022/07/09 00:36:31;;;;;;;;;;;;;;;18.21;63.47;100674.64;1430089;91;20380;-88
2022/07/09 00:38:58;;;;;;;;;;;;;;;18.20;63.52;100674.31;1410911;91;20296;-87
2022/07/09 00:41:25;;;;;;;;;;;;;;;18.24;63.17;100680.11;1412850;92;20370;-87
2022/07/09 00:43:52;;;;;;;;;;;;;;;18.18;63.28;100674.18;1397613;93;20937;-88
2022/07/09 00:46:19;;;;;;;;;;;;;;;18.16;63.57;100676.23;1436599;90;20315;-87
2022/07/09 00:48:46;;;;;;;;;;;;;;;18.15;63.34;100673.22;1436661;89;20954;-87
2022/07/09 00:51:14;;;;;;;;;;;;;;;18.11;63.57;100674.13;1444525;89;20308;-88
2022/07/09 00:53:41;;;;;;;;;;;;;;;18.07;63.69;100677.36;1438355;90;20322;-87
2022/07/09 00:56:09;;;;;;;;;;;;;;;18.08;63.97;100675.02;1434510;89;21299;-89
2022/07/09 00:58:36;;;;;;;;;;;;;;;18.10;63.52;100675.67;1434583;89;20352;-90
2022/07/09 01:01:03;;;;;;;;;;;;;;;18.03;63.92;100677.74;1434893;91;20338;-88
2022/07/09 01:03:30;;;;;;;;;;;;;;;18.01;63.79;100669.09;1433383;90;20272;-86
2022/07/09 01:05:57;;;;;;;;;;;;;;;17.97;63.87;100677.16;1437668;91;20278;-87
2022/07/09 01:08:25;;;;;;;;;;;;;;;17.96;64.11;100665.33;1438461;91;20292;-87
2022/07/09 01:10:53;;;;;;;;;;;;;;;17.93;64.22;100659.83;1429093;91;20327;-87
2022/07/09 01:13:20;;;;;;;;;;;;;;;17.88;64.69;100668.11;1428411;90;20421;-88
2022/07/09 01:15:47;;;;;;;;;;;;;;;17.86;65.08;100665.61;1431831;91;20293;-87
2022/07/09 01:18:14;;;;;;;;;;;;;;;17.85;65.17;100667.16;1435396;90;20293;-88
2022/07/09 01:20:41;;;;;;;;;;;;;;;17.82;65.68;100669.70;1434971;91;20299;-87
2022/07/09 01:23:08;;;;;;;;;;;;;;;17.79;66.02;100667.41;1426895;91;20234;-86
2022/07/09 01:25:38;;;;;;;;;;;;;;;17.76;66.34;100662.40;1432197;90;20249;-87
2022/07/09 01:28:07;;;;;;;;;;;;;;;17.77;66.31;100657.35;1425450;91;20827;-89
2022/07/09 01:30:35;;;;;;;;;;;;;;;17.74;66.72;100656.39;1435714;91;20910;-88
2022/07/09 01:33:03;;;;;;;;;;;;;;;17.68;67.23;100657.16;1429331;90;20910;-88
2022/07/09 01:35:30;;;;;;;;;;;;;;;17.66;67.37;100657.84;1428629;91;20607;-88
2022/07/09 01:37:57;;;;;;;;;;;;;;;17.63;67.26;100651.02;1430762;90;20314;-88
2022/07/09 01:40:24;;;;;;;;;;;;;;;17.55;68.22;100647.96;1436825;90;20301;-88
2022/07/09 01:42:51;;;;;;;;;;;;;;;17.59;67.85;100649.23;1431561;91;20299;-88
2022/07/09 01:45:18;;;;;;;;;;;;;;;17.54;68.12;100654.31;1435101;91;20334;-88
2022/07/09 01:47:45;;;;;;;;;;;;;;;17.60;67.44;100645.53;1436850;91;20960;-88
2022/07/09 01:50:12;;;;;;;;;;;;;;;17.56;67.70;100643.44;1435032;90;20323;-88
2022/07/09 01:52:39;;;;;;;;;;;;;;;17.54;67.64;100644.94;1430965;90;20292;-88
2022/07/09 01:55:06;;;;;;;;;;;;;;;17.47;67.89;100652.08;1430982;91;20956;-88
2022/07/09 01:57:33;;;;;;;;;;;;;;;17.47;67.94;100653.41;1431705;90;20351;-88
2022/07/09 02:00:00;;;;;;;;;;;;;;;17.47;67.86;100648.58;1438666;91;20323;-90
2022/07/09 02:02:27;;;;;;;;;;;;;;;17.48;67.42;100646.21;1432447;90;20865;-89
2022/07/09 02:04:54;;;;;;;;;;;;;;;17.44;67.41;100656.98;1432220;90;20300;-87
2022/07/09 02:07:21;;;;;;;;;;;;;;;17.42;67.48;100650.47;1435583;91;20405;-89
2022/07/09 02:09:49;;;;;;;;;;;;;;;17.44;67.31;100658.31;1448065;91;20308;-89
2022/07/09 02:12:19;;;;;;;;;;;;;;;17.40;67.50;100653.83;1435189;90;20828;-89
2022/07/09 02:14:46;;;;;;;;;;;;;;;17.40;67.39;100654.34;1427777;90;20922;-88
2022/07/09 02:17:12;;;;;;;;;;;;;;;17.37;67.66;100650.19;1433815;90;20307;-89
2022/07/09 02:19:39;;;;;;;;;;;;;;;17.34;67.59;100648.71;1429771;91;20293;-89
2022/07/09 02:22:06;;;;;;;;;;;;;;;17.33;67.57;100653.75;1434949;90;20299;-87
2022/07/09 02:24:33;;;;;;;;;;;;;;;17.33;67.17;100644.91;1439214;91;20692;-88
2022/07/09 02:27:00;;;;;;;;;;;;;;;17.28;67.55;100645.96;1435571;90;21511;-88
2022/07/09 02:29:27;;;;;;;;;;;;;;;17.27;67.47;100646.47;1430621;90;20292;-88
2022/07/09 02:31:55;;;;;;;;;;;;;;;17.25;67.56;100642.32;1433200;90;20285;-87
2022/07/09 02:34:22;;;;;;;;;;;;;;;17.24;67.27;100649.52;1441186;91;20346;-87
2022/07/09 02:36:48;;;;;;;;;;;;;;;17.21;67.60;100645.06;1438118;90;20307;-87
2022/07/09 02:39:15;;;;;;;;;;;;;;;17.21;67.46;100647.73;1432776;91;20998;-87
2022/07/09 02:41:42;;;;;;;;;;;;;;;17.17;67.30;100633.05;1434092;90;20286;-87
2022/07/09 02:44:09;;;;;;;;;;;;;;;17.18;67.35;100651.61;1433432;90;20301;-87
2022/07/09 02:46:36;;;;;;;;;;;;;;;17.17;67.18;100641.91;1440443;91;20293;-88
2022/07/09 02:49:03;;;;;;;;;;;;;;;17.10;67.45;100649.84;1432115;91;20420;-87
2022/07/09 02:51:30;;;;;;;;;;;;;;;17.12;67.29;100647.83;1439569;91;20346;-86
2022/07/09 02:53:57;;;;;;;;;;;;;;;17.09;67.14;100652.69;1434375;91;21086;-86
2022/07/09 02:56:24;;;;;;;;;;;;;;;17.08;67.22;100658.55;1431499;90;20331;-87
2022/07/09 02:58:51;;;;;;;;;;;;;;;17.08;67.12;100659.06;1437664;91;20322;-87
2022/07/09 03:01:17;;;;;;;;;;;;;;;17.08;66.94;100664.41;1431480;91;20309;-86
2022/07/09 03:03:44;;;;;;;;;;;;;;;17.09;66.62;100656.22;1424382;91;20332;-86
2022/07/09 03:06:12;;;;;;;;;;;;;;;17.05;66.71;100660.26;1423017;90;20270;-86
2022/07/09 03:08:40;;;;;;;;;;;;;;;17.02;66.43;100649.94;1433938;91;20360;-87
2022/07/09 03:11:07;;;;;;;;;;;;;;;17.08;66.05;100653.72;1434015;91;20419;-87
2022/07/09 03:13:35;;;;;;;;;;;;;;;17.00;66.40;100655.14;1430872;90;20301;-86
2022/07/09 03:16:03;;;;;;;;;;;;;;;16.97;66.46;100655.00;1430887;90;20932;-88
2022/07/09 03:18:30;;;;;;;;;;;;;;;16.99;66.57;100653.48;1436621;89;20386;-88
2022/07/09 03:20:57;;;;;;;;;;;;;;;17.01;66.17;100656.30;1437200;89;20418;-88
2022/07/09 03:23:24;;;;;;;;;;;;;;;17.02;66.52;100660.63;1441313;89;20389;-88
2022/07/09 03:25:51;;;;;;;;;;;;;;;17.02;66.44;100651.78;1425220;91;20279;-87
2022/07/09 03:28:18;;;;;;;;;;;;;;;16.95;66.92;100658.38;1407547;93;20312;-87
2022/07/09 03:30:45;;;;;;;;;;;;;;;17.02;66.74;100665.98;1406047;93;20283;-86
2022/07/09 03:33:11;;;;;;;;;;;;;;;16.99;66.84;100663.67;1402504;92;20773;-87
2022/07/09 03:35:39;;;;;;;;;;;;;;;17.04;66.93;100659.95;1401850;92;20394;-88
2022/07/09 03:38:06;;;;;;;;;;;;;;;17.06;66.70;100665.95;1428756;90;20293;-89
2022/07/09 03:40:33;;;;;;;;;;;;;;;17.06;66.98;100663.28;1443749;90;20777;-88
2022/07/09 03:43:00;;;;;;;;;;;;;;;17.07;66.88;100663.59;1431470;90;20369;-88
2022/07/09 03:45:27;;;;;;;;;;;;;;;17.11;66.81;100670.73;1433986;90;20278;-87
2022/07/09 03:47:54;;;;;;;;;;;;;;;17.12;66.80;100660.37;1430393;90;21547;-87
2022/07/09 03:50:21;;;;;;;;;;;;;;;17.19;66.70;100664.47;1437858;90;20367;-87
2022/07/09 03:52:48;;;;;;;;;;;;;;;17.17;66.79;100666.48;1431311;91;20914;-88
2022/07/09 03:55:15;;;;;;;;;;;;;;;17.25;66.62;100669.07;1436113;91;20412;-88
2022/07/09 03:57:42;;;;;;;;;;;;;;;17.26;66.73;100669.38;1433546;91;20403;-88
2022/07/09 04:00:09;;;;;;;;;;;;;;;17.35;66.57;100671.80;1429708;91;20860;-88
2022/07/09 04:02:36;;;;;;;;;;;;;;;17.39;66.48;100669.56;1434163;90;20330;-87
2022/07/09 04:05:04;;;;;;;;;;;;;;;17.44;66.50;100669.84;1431045;91;20228;-88
2022/07/09 04:07:32;;;;;;;;;;;;;;;17.52;65.69;100672.42;1462076;89;20349;-87
2022/07/09 04:09:59;;;;;;;;;;;;;;;17.56;65.77;100681.72;1440965;90;20330;-88
2022/07/09 04:12:26;;;;;;;;;;;;;;;17.55;65.41;100675.20;1436395;90;20371;-89
2022/07/09 04:14:52;;;;;;;;;;;;;;;17.67;65.12;100672.91;1436254;91;20383;-90
2022/07/09 04:17:19;;;;;;;;;;;;;;;17.76;64.91;100678.46;1433878;91;20285;-90
2022/07/09 04:19:46;;;;;;;;;;;;;;;17.84;64.03;100678.38;1431418;90;21087;-90
2022/07/09 04:22:13;;;;;;;;;;;;;;;17.94;64.00;100677.55;1435224;90;20307;-90
2022/07/09 04:24:40;;;;;;;;;;;;;;;18.03;63.27;100676.41;1433143;90;20377;-89
2022/07/09 04:27:07;;;;;;;;;;;;;;;18.07;63.00;100680.03;1433220;90;20314;-89
2022/07/09 04:29:33;;;;;;;;;;;;;;;18.13;62.81;100680.13;1432814;90;20375;-90
2022/07/09 04:32:00;;;;;;;;;;;;;;;18.26;62.72;100684.77;1436226;91;20434;-89
2022/07/09 04:34:27;;;;;;;;;;;;;;;18.29;62.91;100685.72;1428431;91;20874;-88
2022/07/09 04:36:54;;;;;;;;;;;;;;;18.30;62.13;100684.72;1430341;90;20359;-90
2022/07/09 04:39:24;;;;;;;;;;;;;;;18.42;62.27;100685.86;1436073;90;20262;-90
2022/07/09 04:41:50;;;;;;;;;;;;;;;18.48;62.04;100687.77;1431928;91;20389;-90
2022/07/09 04:44:17;;;;;;;;;;;;;;;18.60;62.14;100696.62;1436855;90;20241;-90
2022/07/09 04:46:45;;;;;;;;;;;;;;;18.68;61.46;100691.95;1433342;91;20984;-90
2022/07/09 04:49:12;;;;;;;;;;;;;;;18.74;61.01;100689.55;1437229;91;20746;-89
2022/07/09 04:51:39;;;;;;;;;;;;;;;18.72;61.25;100697.74;1433168;91;20323;-90
2022/07/09 04:54:06;;;;;;;;;;;;;;;18.69;61.26;100694.11;1429087;90;20316;-88
2022/07/09 04:56:32;;;;;;;;;;;;;;;18.57;61.17;100697.01;1436228;91;20241;-88
2022/07/09 04:59:02;;;;;;;;;;;;;;;18.59;61.34;100699.00;1435848;91;20327;-87
2022/07/09 05:01:29;;;;;;;;;;;;;;;18.45;61.36;100704.23;1434246;91;20323;-83
2022/07/09 05:03:56;;;;;;;;;;;;;;;18.46;61.37;100695.67;1431991;90;20346;-81
2022/07/09 05:06:24;;;;;;;;;;;;;;;18.46;61.74;100697.84;1432593;91;20829;-82
2022/07/09 05:08:51;;;;;;;;;;;;;;;18.39;61.51;100703.66;1428646;90;20241;-82
2022/07/09 05:11:18;;;;;;;;;;;;;;;18.54;61.29;100698.73;1435881;91;20241;-83
2022/07/09 05:13:46;;;;;;;;;;;;;;;18.64;61.32;100701.41;1439882;91;20367;-82
2022/07/09 05:16:13;;;;;;;;;;;;;;;18.59;61.20;100705.70;1440167;91;20393;-82
2022/07/09 05:18:40;;;;;;;;;;;;;;;18.50;60.85;100707.69;1432666;90;20927;-82
2022/07/09 05:21:07;;;;;;;;;;;;;;;18.54;60.72;100702.76;1431368;90;20292;-82
2022/07/09 05:23:34;;;;;;;;;;;;;;;18.49;60.90;100701.47;1435477;91;20322;-82
2022/07/09 05:26:01;;;;;;;;;;;;;;;18.53;60.32;100698.40;1433061;91;20821;-82
2022/07/09 05:28:28;;;;;;;;;;;;;;;18.54;60.68;100696.06;1435922;90;20271;-83
2022/07/09 05:30:54;;;;;;;;;;;;;;;18.73;60.60;100699.42;1438666;90;20277;-82
2022/07/09 05:33:23;;;;;;;;;;;;;;;18.92;60.44;100696.06;1435606;89;20869;-82
2022/07/09 05:35:50;;;;;;;;;;;;;;;19.03;59.67;100696.56;1441298;89;20300;-82
2022/07/09 05:38:16;;;;;;;;;;;;;;;19.23;59.64;100698.02;1445305;90;20278;-82
2022/07/09 05:40:44;;;;;;;;;;;;;;;19.19;57.94;100699.42;1431743;90;20317;-83
2022/07/09 05:43:11;;;;;;;;;;;;;;;19.00;58.23;100694.27;1432891;90;20307;-82
2022/07/09 05:45:37;;;;;;;;;;;;;;;19.09;57.61;100701.13;1435288;90;20278;-82
2022/07/09 05:48:05;;;;;;;;;;;;;;;19.28;57.75;100698.27;1421189;91;20346;-82
2022/07/09 05:50:32;;;;;;;;;;;;;;;19.42;56.86;100699.14;1430130;90;20601;-82
2022/07/09 05:52:58;;;;;;;;;;;;;;;19.57;56.52;100699.85;1433783;91;20256;-83
2022/07/09 05:55:26;;;;;;;;;;;;;;;19.67;56.14;100701.66;1437755;91;20309;-83
2022/07/09 05:57:52;;;;;;;;;;;;;;;19.88;55.83;100695.35;1433800;90;20278;-84
2022/07/09 06:00:20;;;;;;;;;;;;;;;20.00;54.97;100687.53;1444016;90;20315;-83
2022/07/09 06:02:47;;;;;;;;;;;;;;;20.14;54.74;100697.77;1426287;91;20292;-83
2022/07/09 06:05:14;;;;;;;;;;;;;;;20.20;54.30;100694.29;1433579;91;20798;-84
2022/07/09 06:07:44;;;;;;;;;;;;;;;20.23;54.60;100690.67;1425012;90;20293;-83
2022/07/09 06:10:09;;;;;;;;;;;;;;;20.14;53.86;100691.91;1423043;89;20820;-84
2022/07/09 06:12:37;;;;;;;;;;;;;;;20.05;53.72;100689.92;1438469;91;20241;-83
2022/07/09 06:15:05;;;;;;;;;;;;;;;20.07;53.81;100692.39;1437137;90;20299;-83
2022/07/09 06:17:32;;;;;;;;;;;;;;;20.11;53.48;100685.59;1437437;91;20850;-82
2022/07/09 06:19:58;;;;;;;;;;;;;;;20.34;53.83;100684.36;1425148;90;20359;-82
2022/07/09 06:22:25;;;;;;;;;;;;;;;20.49;53.95;100680.98;1431391;90;21092;-83
2022/07/09 06:24:52;;;;;;;;;;;;;;;20.08;52.99;100683.28;1431315;90;20338;-81
2022/07/09 06:27:19;;;;;;;;;;;;;;;20.17;53.58;100679.40;1431489;91;20505;-81
2022/07/09 06:29:46;;;;;;;;;;;;;;;20.38;53.41;100677.03;1435122;91;20322;-81
2022/07/09 06:32:13;;;;;;;;;;;;;;;20.35;52.98;100679.31;1437439;91;20257;-81
2022/07/09 06:34:39;;;;;;;;;;;;;;;20.39;52.73;100677.86;1443561;91;20271;-80
2022/07/09 06:37:06;;;;;;;;;;;;;;;20.59;52.60;100681.41;1433241;91;20280;-81
2022/07/09 06:39:48;;;;;;;;;;;;;;;20.65;52.49;100679.23;1433316;90;20379;-80
2022/07/09 06:42:17;;;;;;;;;;;;;;;20.78;52.56;100692.38;1430203;90;20307;-81
2022/07/09 06:44:44;;;;;;;;;;;;;;;20.83;52.35;100689.86;1431464;91;20270;-81
2022/07/09 06:47:11;;;;;;;;;;;;;;;20.85;51.55;100686.45;1442253;91;20307;-81
2022/07/09 06:49:38;;;;;;;;;;;;;;;20.87;51.68;100683.88;1432663;90;20293;-81
2022/07/09 06:52:07;;;;;;;;;;;;;;;20.96;51.67;100679.92;1433642;91;20322;-81
2022/07/09 06:54:35;;;;;;;;;;;;;;;21.18;51.26;100682.38;1434775;90;20390;-81
2022/07/09 06:57:03;;;;;;;;;;;;;;;21.38;50.62;100671.05;1421682;91;20411;-81
2022/07/09 06:59:30;;;;;;;;;;;;;;;21.13;49.85;100680.30;1438799;91;20338;-81
2022/07/09 07:01:57;;;;;;;;;;;;;;;21.13;50.35;100687.03;1424461;91;20278;-81
2022/07/09 07:04:25;;;;;;;;;;;;;;;21.19;49.15;100685.36;1436039;91;20293;-81
2022/07/09 07:06:52;;;;;;;;;;;;;;;21.37;49.57;100685.53;1437183;91;20293;-82
2022/07/09 07:09:22;;;;;;;;;;;;;;;21.49;48.40;100678.99;1427101;89;20337;-83
2022/07/09 07:11:49;;;;;;;;;;;;;;;21.37;48.57;100683.37;1436973;91;20322;-82
2022/07/09 07:14:17;;;;;;;;;;;;;;;21.59;48.90;100679.34;1429758;91;20878;-82
2022/07/09 07:16:44;;;;;;;;;;;;;;;21.43;48.24;100678.47;1435463;91;20271;-81
2022/07/09 07:19:11;;;;;;;;;;;;;;;21.56;47.85;100673.05;1426307;91;20309;-81
2022/07/09 07:21:38;;;;;;;;;;;;;;;21.57;47.87;100671.17;1438030;91;20286;-82
2022/07/09 07:24:07;;;;;;;;;;;;;;;21.67;47.86;100682.86;1429762;90;21092;-81
2022/07/09 07:26:35;;;;;;;;;;;;;;;21.77;47.23;100685.89;1440945;91;20314;-81
2022/07/09 07:29:09;;;;;;;;;;;;;;;21.95;47.21;100684.67;1441036;91;20405;-82
2022/07/09 07:31:35;;;;;;;;;;;;;;;21.91;46.56;100686.66;1438029;90;20884;-82
2022/07/09 07:34:02;;;;;;;;;;;;;;;21.75;46.70;100679.89;1440484;91;20278;-82
2022/07/09 07:36:29;;;;;;;;;;;;;;;21.69;46.21;100679.41;1429981;90;20367;-82
2022/07/09 07:38:55;;;;;;;;;;;;;;;21.65;46.72;100679.02;1426167;91;21099;-82
2022/07/09 07:41:23;;;;;;;;;;;;;;;21.88;46.40;100684.39;1427459;91;20253;-81
2022/07/09 07:43:50;;;;;;;;;;;;;;;22.07;45.63;100684.28;1434421;91;20320;-81
2022/07/09 07:46:16;;;;;;;;;;;;;;;22.16;45.23;100673.24;1438082;90;20799;-80
2022/07/09 07:48:43;;;;;;;;;;;;;;;22.13;44.42;100681.77;1427476;91;20300;-87
2022/07/09 07:51:10;;;;;;;;;;;;;;;22.19;44.45;100682.27;1441575;90;20442;-87
2022/07/09 07:53:37;;;;;;;;;;;;;;;22.48;45.25;100678.11;1435200;90;20323;-85
2022/07/09 07:56:06;;;;;;;;;;;;;;;22.66;43.87;100677.33;1432086;90;20368;-85
2022/07/09 07:58:33;;;;;;;;;;;;;;;22.57;43.68;100663.30;1433553;91;20362;-85
2022/07/09 08:01:04;;;;;;;;;;;;;;;22.84;43.69;100680.58;1412561;89;20586;-85
2022/07/09 08:03:31;;;;;;;;;;;;;;;22.84;43.10;100670.61;1435241;90;20312;-86
2022/07/09 08:05:58;;;;;;;;;;;;;;;22.86;42.78;100671.22;1435356;89;20392;-86
2022/07/09 08:08:25;;;;;;;;;;;;;;;22.93;42.83;100671.14;1433031;91;20573;-85
2022/07/09 08:10:52;;;;;;;;;;;;;;;22.69;41.94;100675.53;1435182;90;20353;-85
2022/07/09 08:13:19;;;;;;;;;;;;;;;22.85;42.48;100679.02;1433130;91;20280;-85
2022/07/09 08:15:46;;;;;;;;;;;;;;;22.97;42.15;100665.12;1435362;90;20307;-86
2022/07/09 08:18:13;;;;;;;;;;;;;;;22.69;41.66;100671.48;1436288;91;20263;-86
2022/07/09 08:20:41;;;;;;;;;;;;;;;22.73;41.93;100661.39;1433087;91;20419;-86
2022/07/09 08:23:08;;;;;;;;;;;;;;;22.69;43.03;100668.80;1438834;90;20368;-86
2022/07/09 08:25:35;;;;;;;;;;;;;;;22.81;43.04;100660.79;1427978;91;20263;-86
2022/07/09 08:28:02;;;;;;;;;;;;;;;22.93;42.70;100662.55;1435537;91;20315;-86
2022/07/09 08:30:29;;;;;;;;;;;;;;;22.97;42.89;100654.33;1433829;91;20278;-85
2022/07/09 08:32:56;;;;;;;;;;;;;;;23.24;41.49;100662.66;1424498;90;20294;-86
2022/07/09 08:35:25;;;;;;;;;;;;;;;23.34;41.90;100662.43;1430734;91;20931;-86
2022/07/09 08:37:52;;;;;;;;;;;;;;;23.36;41.10;100652.23;1432733;91;20368;-87
2022/07/09 08:40:20;;;;;;;;;;;;;;;23.31;41.03;100670.98;1431754;91;20308;-87
2022/07/09 08:42:48;;;;;;;;;;;;;;;23.52;41.21;100660.77;1426206;90;20301;-87
2022/07/09 08:45:17;;;;;;;;;;;;;;;23.74;40.94;100657.91;1431044;91;20300;-86
2022/07/09 08:47:44;;;;;;;;;;;;;;;23.81;39.09;100657.27;1432642;91;20285;-87
2022/07/09 08:50:12;;;;;;;;;;;;;;;23.75;39.14;100659.55;1435937;91;20255;-87
2022/07/09 08:52:39;;;;;;;;;;;;;;;23.82;39.48;100645.42;1433044;90;20271;-86
2022/07/09 08:55:08;;;;;;;;;;;;;;;23.79;38.70;100643.69;1434774;91;20404;-87
2022/07/09 08:57:35;;;;;;;;;;;;;;;23.87;39.09;100655.00;1436742;91;20442;-87
2022/07/09 09:00:04;;;;;;;;;;;;;;;23.92;39.38;100642.69;1432252;91;20227;-87
2022/07/09 09:02:38;;;;;;;;;;;;;;;23.80;39.61;100646.17;1432043;91;20315;-87
2022/07/09 09:05:11;;;;;;;;;;;;;;;23.88;39.01;100643.69;1436860;90;21041;-86
2022/07/09 09:07:38;;;;;;;;;;;;;;;24.01;39.77;100643.47;1431297;90;20373;-87
2022/07/09 09:10:06;;;;;;;;;;;;;;;24.19;40.02;100643.09;1429703;89;20322;-87
2022/07/09 09:12:34;;;;;;;;;;;;;;;24.45;39.53;100642.69;1443164;89;20281;-86
2022/07/09 09:15:06;;;;;;;;;;;;;;;24.44;39.11;100649.70;1446833;89;21567;-87
2022/07/09 09:17:33;;;;;;;;;;;;;;;24.19;38.81;100639.86;1430356;90;20277;-87
2022/07/09 09:20:15;;;;;;;;;;;;;;;24.37;38.97;100638.12;1436995;91;20290;-86
2022/07/09 09:22:51;;;;;;;;;;;;;;;24.46;37.73;100632.17;1433906;91;20427;-87
2022/07/09 09:25:19;;;;;;;;;;;;;;;24.51;39.21;100632.30;1435383;90;20349;-87
2022/07/09 09:27:53;;;;;;;;;;;;;;;24.68;38.96;100618.86;1437674;90;20378;-86
2022/07/09 09:30:21;;;;;;;;;;;;;;;24.74;38.66;100634.19;1443509;90;20344;-86
2022/07/09 09:32:59;;;;;;;;;;;;;;;24.92;36.98;100621.58;1439337;91;20278;-85
2022/07/09 09:35:28;;;;;;;;;;;;;;;24.92;37.04;100624.28;1429416;91;20404;-87
2022/07/09 09:37:56;;;;;;;;;;;;;;;24.92;37.88;100618.88;1436567;91;20339;-86
2022/07/09 09:40:23;;;;;;;;;;;;;;;25.01;37.07;100624.20;1436000;91;20286;-86
2022/07/09 09:42:51;;;;;;;;;;;;;;;25.07;37.35;100624.59;1427297;91;20271;-86
2022/07/09 09:45:18;;;;;;;;;;;;;;;24.84;37.69;100619.23;1431842;91;20426;-87
2022/07/09 09:47:48;;;;;;;;;;;;;;;24.83;37.81;100626.53;1427787;91;20285;-87
2022/07/09 09:50:23;;;;;;;;;;;;;;;24.82;37.52;100624.05;1435187;90;20814;-86
2022/07/09 09:52:52;;;;;;;;;;;;;;;24.74;37.76;100617.95;1427242;91;20850;-88
2022/07/09 09:55:20;;;;;;;;;;;;;;;24.76;37.58;100629.34;1437377;91;20370;-88
2022/07/09 09:57:50;;;;;;;;;;;;;;;25.12;37.98;100620.66;1431200;90;20842;-88
2022/07/09 10:00:16;;;;;;;;;;;;;;;25.18;36.86;100622.43;1440093;91;20285;-88
2022/07/09 10:02:45;;;;;;;;;;;;;;;25.04;36.61;100621.02;1433142;91;20360;-88
2022/07/09 10:05:13;;;;;;;;;;;;;;;25.13;36.76;100614.16;1436042;90;20784;-88
2022/07/09 10:07:41;;;;;;;;;;;;;;;25.09;36.57;100611.66;1438706;91;21281;-88
2022/07/09 10:10:10;;;;;;;;;;;;;;;25.17;36.37;100608.58;1435739;90;20816;-88
2022/07/09 10:12:37;;;;;;;;;;;;;;;25.31;36.44;100615.08;1431536;91;20376;-88
2022/07/09 10:15:26;;;;;;;;;;;;;;;25.38;36.51;100618.49;1438109;91;20323;-88
2022/07/09 10:17:53;;;;;;;;;;;;;;;25.11;36.56;100610.86;1437600;91;20338;-88
2022/07/09 10:20:34;;;;;;;;;;;;;;;25.33;36.67;100606.20;1442563;90;20264;-88
2022/07/09 10:23:01;;;;;;;;;;;;;;;25.42;36.32;100603.39;1435289;89;20785;-88
2022/07/09 10:25:34;;;;;;;;;;;;;;;25.35;36.04;100601.37;1432191;90;20307;-88
2022/07/09 10:28:01;;;;;;;;;;;;;;;25.20;36.24;100600.00;1432936;89;20339;-88
2022/07/09 10:30:31;;;;;;;;;;;;;;;25.17;36.43;100593.68;1442104;89;20386;-89
2022/07/09 10:33:06;;;;;;;;;;;;;;;25.10;36.66;100594.88;1438215;90;20976;-89
2022/07/09 10:35:42;;;;;;;;;;;;;;;25.32;36.88;100592.34;1441647;89;20896;-89
2022/07/09 10:38:09;;;;;;;;;;;;;;;25.55;35.40;100601.75;1444049;89;20360;-88
2022/07/09 10:40:42;;;;;;;;;;;;;;;25.87;35.77;100590.42;1442603;90;20294;-89
2022/07/09 10:43:10;;;;;;;;;;;;;;;26.08;36.35;100587.52;1440891;89;20360;-89
2022/07/09 10:45:40;;;;;;;;;;;;;;;26.02;34.43;100589.86;1433440;90;20300;-88
2022/07/09 10:48:09;;;;;;;;;;;;;;;25.58;34.89;100595.84;1432457;90;20349;-88
2022/07/09 10:50:39;;;;;;;;;;;;;;;25.77;34.98;100592.91;1430579;90;20397;-89
2022/07/09 10:53:06;;;;;;;;;;;;;;;25.81;34.63;100589.48;1433449;90;20353;-88
2022/07/09 10:55:33;;;;;;;;;;;;;;;25.96;35.27;100587.59;1432324;90;20830;-88
2022/07/09 10:58:02;;;;;;;;;;;;;;;26.14;35.07;100581.64;1437634;91;20323;-88
2022/07/09 11:00:31;;;;;;;;;;;;;;;26.41;34.19;100578.52;1442531;90;20843;-88
2022/07/09 11:03:04;;;;;;;;;;;;;;;25.99;33.01;100577.61;1448502;90;20338;-88
2022/07/09 11:05:33;;;;;;;;;;;;;;;26.02;33.52;100583.08;1437490;90;20422;-88
2022/07/09 11:08:07;;;;;;;;;;;;;;;26.26;33.44;100571.52;1434141;91;20286;-88
2022/07/09 11:10:39;;;;;;;;;;;;;;;26.40;32.96;100576.88;1438081;90;20923;-88
2022/07/09 11:13:08;;;;;;;;;;;;;;;26.57;32.85;100568.75;1426994;91;20445;-88
2022/07/09 11:15:37;;;;;;;;;;;;;;;26.78;33.43;100556.26;1410891;92;20400;-89
2022/07/09 11:18:10;;;;;;;;;;;;;;;26.71;31.94;100556.45;1430496;91;20384;-88
2022/07/09 11:20:45;;;;;;;;;;;;;;;26.69;31.58;100557.77;1423352;91;20452;-89
2022/07/09 11:23:14;;;;;;;;;;;;;;;26.89;31.71;100566.72;1427318;90;20338;-88
2022/07/09 11:25:42;;;;;;;;;;;;;;;27.07;32.33;100560.14;1438558;90;20420;-88
2022/07/09 11:28:11;;;;;;;;;;;;;;;26.99;31.22;100559.53;1427754;90;20405;-87
2022/07/09 11:30:38;;;;;;;;;;;;;;;26.89;31.66;100551.25;1431710;90;20257;-87
2022/07/09 11:33:05;;;;;;;;;;;;;;;26.98;30.87;100546.19;1429260;90;20821;-87
2022/07/09 11:35:34;;;;;;;;;;;;;;;27.03;31.23;100548.16;1436273;90;20315;-87
2022/07/09 11:38:03;;;;;;;;;;;;;;;27.01;31.49;100549.20;1433282;90;20405;-87
2022/07/09 11:40:30;;;;;;;;;;;;;;;27.12;31.18;100541.20;1429234;90;20300;-86
2022/07/09 11:42:57;;;;;;;;;;;;;;;27.20;31.24;100542.13;1434370;91;20300;-86
2022/07/09 11:45:27;;;;;;;;;;;;;;;27.44;31.55;100538.56;1438807;91;20887;-86
2022/07/09 11:48:05;;;;;;;;;;;;;;;27.11;30.22;100536.84;1431871;90;20843;-86
2022/07/09 11:50:34;;;;;;;;;;;;;;;27.43;31.34;100526.88;1441751;90;20270;-86
2022/07/09 11:53:01;;;;;;;;;;;;;;;27.39;29.73;100527.64;1427643;91;20329;-86
2022/07/09 11:55:35;;;;;;;;;;;;;;;27.17;29.76;100529.06;1433962;91;20293;-86
2022/07/09 11:58:10;;;;;;;;;;;;;;;27.32;30.73;100519.70;1436343;91;20909;-87
2022/07/09 12:00:40;;;;;;;;;;;;;;;27.34;30.03;100505.33;1437731;90;20382;-86
2022/07/09 12:03:07;;;;;;;;;;;;;;;27.49;29.44;100505.19;1436128;90;20426;-87
2022/07/09 12:05:36;;;;;;;;;;;;;;;27.22;29.96;100508.20;1434345;91;20977;-86
2022/07/09 12:08:06;;;;;;;;;;;;;;;27.28;30.56;100504.19;1443069;90;20226;-86
2022/07/09 12:10:41;;;;;;;;;;;;;;;27.42;30.80;100504.05;1516146;90;20924;-86
2022/07/09 12:13:18;;;;;;;;;;;;;;;27.53;29.95;100494.89;1413716;91;20249;-85
2022/07/09 12:15:45;;;;;;;;;;;;;;;27.47;29.66;100498.64;1447122;90;20371;-87
2022/07/09 12:18:12;;;;;;;;;;;;;;;27.40;29.75;100490.71;1443989;89;21502;-87
2022/07/09 12:20:40;;;;;;;;;;;;;;;27.61;29.17;100482.73;1445784;90;20990;-86
2022/07/09 12:23:06;;;;;;;;;;;;;;;27.59;28.74;100484.36;1445772;90;20308;-87
2022/07/09 12:25:33;;;;;;;;;;;;;;;27.71;29.38;100476.55;1446562;89;20390;-86
2022/07/09 12:28:00;;;;;;;;;;;;;;;28.03;29.53;100473.84;1438249;90;20396;-87
2022/07/09 12:30:29;;;;;;;;;;;;;;;28.10;27.62;100467.06;1441193;90;20379;-86
2022/07/09 12:32:58;;;;;;;;;;;;;;;27.80;27.09;100465.52;1444876;89;20422;-86
2022/07/09 12:35:27;;;;;;;;;;;;;;;28.06;27.28;100462.42;1443448;89;20494;-87
2022/07/09 12:37:56;;;;;;;;;;;;;;;28.42;27.33;100458.55;1432152;90;20621;-86
2022/07/09 12:40:23;;;;;;;;;;;;;;;28.68;28.23;100452.11;1447966;90;21564;-87